Terminal Aerodrome Forecast
Issued by NWS

Current Version | Previous Version | Text Only | Print | Product List | Glossary Off
Versions: 1 2 3 4 5 6 7 8 9 10 11 12 13 14 15 16

000
FTUS41 KILN 221700
TAFLUK
TAF
KLUK 221726Z 2218/2318 26010G17KT P6SM SCT060
     FM230100 VRB03KT P6SM SCT250
     FM230300 00000KT P6SM SCT200
      TEMPO 2309/2311 4SM BR
     FM231400 14004KT P6SM SCT150=

USA.gov is the U.S. government's official web portal to all federal, state and local government web resources and services.